sensor_id;sensor_type;location;lat;lon;timestamp;P1;durP1;ratioP1;P2;durP2;ratioP2
10170;SDS011;5127;50.922;6.988;2022-12-18T00:02:15;15.97;;;9.60;;
10170;SDS011;5127;50.922;6.988;2022-12-18T00:04:44;17.77;;;10.03;;
10170;SDS011;5127;50.922;6.988;2022-12-18T00:07:11;20.37;;;10.00;;
10170;SDS011;5127;50.922;6.988;2022-12-18T00:09:38;16.20;;;9.37;;
10170;SDS011;5127;50.922;6.988;2022-12-18T00:12:06;17.10;;;9.47;;
10170;SDS011;5127;50.922;6.988;2022-12-18T00:14:34;17.70;;;10.07;;
10170;SDS011;5127;50.922;6.988;2022-12-18T00:17:02;15.97;;;9.97;;
10170;SDS011;5127;50.922;6.988;2022-12-18T00:19:29;17.10;;;10.20;;
10170;SDS011;5127;50.922;6.988;2022-12-18T00:21:58;17.97;;;10.40;;
10170;SDS011;5127;50.922;6.988;2022-12-18T00:24:25;20.37;;;10.17;;
10170;SDS011;5127;50.922;6.988;2022-12-18T00:26:52;16.80;;;9.97;;
10170;SDS011;5127;50.922;6.988;2022-12-18T00:29:19;16.67;;;9.93;;
10170;SDS011;5127;50.922;6.988;2022-12-18T00:31:47;18.63;;;10.77;;
10170;SDS011;5127;50.922;6.988;2022-12-18T00:34:14;16.07;;;10.07;;
10170;SDS011;5127;50.922;6.988;2022-12-18T00:36:41;13.83;;;8.50;;
10170;SDS011;5127;50.922;6.988;2022-12-18T00:39:10;15.23;;;8.97;;
10170;SDS011;5127;50.922;6.988;2022-12-18T00:41:38;14.87;;;9.00;;
10170;SDS011;5127;50.922;6.988;2022-12-18T00:44:24;16.00;;;9.10;;
10170;SDS011;5127;50.922;6.988;2022-12-18T00:46:52;17.57;;;10.33;;
10170;SDS011;5127;50.922;6.988;2022-12-18T00:49:19;14.23;;;9.53;;
10170;SDS011;5127;50.922;6.988;2022-12-18T00:51:47;13.60;;;9.27;;
10170;SDS011;5127;50.922;6.988;2022-12-18T00:54:16;17.63;;;10.07;;
10170;SDS011;5127;50.922;6.988;2022-12-18T00:56:44;15.97;;;9.90;;
10170;SDS011;5127;50.922;6.988;2022-12-18T00:59:11;15.63;;;9.63;;
10170;SDS011;5127;50.922;6.988;2022-12-18T01:01:38;15.23;;;9.70;;
10170;SDS011;5127;50.922;6.988;2022-12-18T01:04:06;16.87;;;9.63;;
10170;SDS011;5127;50.922;6.988;2022-12-18T01:06:33;14.90;;;9.50;;
10170;SDS011;5127;50.922;6.988;2022-12-18T01:09:01;16.77;;;9.77;;
10170;SDS011;5127;50.922;6.988;2022-12-18T01:11:30;15.53;;;9.33;;
10170;SDS011;5127;50.922;6.988;2022-12-18T01:13:57;14.93;;;10.00;;
10170;SDS011;5127;50.922;6.988;2022-12-18T01:16:24;14.00;;;9.10;;
10170;SDS011;5127;50.922;6.988;2022-12-18T01:18:52;15.23;;;9.57;;
10170;SDS011;5127;50.922;6.988;2022-12-18T01:21:21;16.77;;;9.63;;
10170;SDS011;5127;50.922;6.988;2022-12-18T01:23:50;14.90;;;9.10;;
10170;SDS011;5127;50.922;6.988;2022-12-18T01:26:19;15.17;;;8.97;;
10170;SDS011;5127;50.922;6.988;2022-12-18T01:28:48;14.53;;;9.50;;
10170;SDS011;5127;50.922;6.988;2022-12-18T01:31:16;15.90;;;9.53;;
10170;SDS011;5127;50.922;6.988;2022-12-18T01:33:46;13.47;;;9.50;;
10170;SDS011;5127;50.922;6.988;2022-12-18T01:36:17;16.07;;;10.03;;
10170;SDS011;5127;50.922;6.988;2022-12-18T01:38:46;16.00;;;9.67;;
10170;SDS011;5127;50.922;6.988;2022-12-18T01:41:14;15.87;;;10.03;;
10170;SDS011;5127;50.922;6.988;2022-12-18T01:43:43;17.73;;;10.10;;
10170;SDS011;5127;50.922;6.988;2022-12-18T01:46:14;16.17;;;9.60;;
10170;SDS011;5127;50.922;6.988;2022-12-18T01:48:42;15.83;;;9.60;;
10170;SDS011;5127;50.922;6.988;2022-12-18T01:51:13;16.53;;;10.13;;
10170;SDS011;5127;50.922;6.988;2022-12-18T01:53:41;17.80;;;10.20;;
10170;SDS011;5127;50.922;6.988;2022-12-18T01:56:12;17.60;;;10.10;;
10170;SDS011;5127;50.922;6.988;2022-12-18T01:58:43;15.53;;;9.93;;
10170;SDS011;5127;50.922;6.988;2022-12-18T02:01:18;16.80;;;9.63;;
10170;SDS011;5127;50.922;6.988;2022-12-18T02:03:48;15.60;;;9.20;;
10170;SDS011;5127;50.922;6.988;2022-12-18T02:06:16;18.33;;;10.43;;
10170;SDS011;5127;50.922;6.988;2022-12-18T02:08:57;18.23;;;10.23;;
10170;SDS011;5127;50.922;6.988;2022-12-18T02:11:32;14.10;;;9.37;;
10170;SDS011;5127;50.922;6.988;2022-12-18T02:14:11;15.40;;;10.00;;
10170;SDS011;5127;50.922;6.988;2022-12-18T02:16:46;14.50;;;9.53;;
10170;SDS011;5127;50.922;6.988;2022-12-18T02:19:37;18.87;;;9.57;;
10170;SDS011;5127;50.922;6.988;2022-12-18T02:22:16;15.00;;;9.90;;
10170;SDS011;5127;50.922;6.988;2022-12-18T02:24:53;15.07;;;9.97;;
10170;SDS011;5127;50.922;6.988;2022-12-18T02:27:28;17.97;;;10.40;;
10170;SDS011;5127;50.922;6.988;2022-12-18T02:29:58;13.10;;;8.33;;
10170;SDS011;5127;50.922;6.988;2022-12-18T02:32:30;15.63;;;9.73;;
10170;SDS011;5127;50.922;6.988;2022-12-18T02:35:00;14.10;;;8.97;;
10170;SDS011;5127;50.922;6.988;2022-12-18T02:37:32;14.07;;;8.80;;
10170;SDS011;5127;50.922;6.988;2022-12-18T02:40:05;14.07;;;9.07;;
10170;SDS011;5127;50.922;6.988;2022-12-18T02:42:37;13.87;;;9.33;;
10170;SDS011;5127;50.922;6.988;2022-12-18T02:45:07;13.27;;;9.17;;
10170;SDS011;5127;50.922;6.988;2022-12-18T02:47:36;16.30;;;8.87;;
10170;SDS011;5127;50.922;6.988;2022-12-18T02:50:07;15.83;;;9.43;;
10170;SDS011;5127;50.922;6.988;2022-12-18T02:52:45;17.20;;;9.50;;
10170;SDS011;5127;50.922;6.988;2022-12-18T02:55:25;13.73;;;9.57;;
10170;SDS011;5127;50.922;6.988;2022-12-18T02:58:09;15.27;;;9.03;;
10170;SDS011;5127;50.922;6.988;2022-12-18T03:00:42;16.53;;;8.87;;
10170;SDS011;5127;50.922;6.988;2022-12-18T03:03:16;13.20;;;8.77;;
10170;SDS011;5127;50.922;6.988;2022-12-18T03:05:49;13.03;;;8.93;;
10170;SDS011;5127;50.922;6.988;2022-12-18T03:08:20;14.33;;;9.40;;
10170;SDS011;5127;50.922;6.988;2022-12-18T03:10:50;13.97;;;8.87;;
10170;SDS011;5127;50.922;6.988;2022-12-18T03:13:23;16.60;;;9.93;;
10170;SDS011;5127;50.922;6.988;2022-12-18T03:15:54;15.30;;;9.40;;
10170;SDS011;5127;50.922;6.988;2022-12-18T03:18:23;17.10;;;9.57;;
10170;SDS011;5127;50.922;6.988;2022-12-18T03:20:57;16.73;;;9.47;;
10170;SDS011;5127;50.922;6.988;2022-12-18T03:23:29;15.37;;;9.30;;
10170;SDS011;5127;50.922;6.988;2022-12-18T03:26:02;14.80;;;9.13;;
10170;SDS011;5127;50.922;6.988;2022-12-18T03:28:36;15.30;;;9.17;;
10170;SDS011;5127;50.922;6.988;2022-12-18T03:31:08;13.67;;;8.40;;
10170;SDS011;5127;50.922;6.988;2022-12-18T03:33:39;15.60;;;8.37;;
10170;SDS011;5127;50.922;6.988;2022-12-18T03:36:11;15.70;;;9.30;;
10170;SDS011;5127;50.922;6.988;2022-12-18T03:38:38;13.27;;;8.90;;
10170;SDS011;5127;50.922;6.988;2022-12-18T03:41:09;12.00;;;8.17;;
10170;SDS011;5127;50.922;6.988;2022-12-18T03:44:05;14.60;;;8.73;;
10170;SDS011;5127;50.922;6.988;2022-12-18T03:46:43;14.40;;;8.80;;
10170;SDS011;5127;50.922;6.988;2022-12-18T03:49:18;14.40;;;9.70;;
10170;SDS011;5127;50.922;6.988;2022-12-18T03:51:51;13.93;;;8.70;;
10170;SDS011;5127;50.922;6.988;2022-12-18T03:54:21;14.87;;;9.10;;
10170;SDS011;5127;50.922;6.988;2022-12-18T03:56:57;16.27;;;9.17;;
10170;SDS011;5127;50.922;6.988;2022-12-18T03:59:30;13.93;;;8.80;;
10170;SDS011;5127;50.922;6.988;2022-12-18T04:02:00;15.90;;;9.20;;
10170;SDS011;5127;50.922;6.988;2022-12-18T04:04:30;16.13;;;9.80;;
10170;SDS011;5127;50.922;6.988;2022-12-18T04:07:00;14.57;;;9.00;;
10170;SDS011;5127;50.922;6.988;2022-12-18T04:09:29;14.37;;;8.67;;
10170;SDS011;5127;50.922;6.988;2022-12-18T04:11:58;17.40;;;9.90;;
10170;SDS011;5127;50.922;6.988;2022-12-18T04:14:25;15.37;;;9.30;;
10170;SDS011;5127;50.922;6.988;2022-12-18T04:16:56;15.60;;;9.87;;
10170;SDS011;5127;50.922;6.988;2022-12-18T04:19:29;15.00;;;9.33;;
10170;SDS011;5127;50.922;6.988;2022-12-18T04:21:58;15.17;;;10.00;;
10170;SDS011;5127;50.922;6.988;2022-12-18T04:24:26;14.03;;;9.33;;
10170;SDS011;5127;50.922;6.988;2022-12-18T04:27:03;17.13;;;10.30;;
10170;SDS011;5127;50.922;6.988;2022-12-18T04:29:35;15.90;;;10.13;;
10170;SDS011;5127;50.922;6.988;2022-12-18T04:32:04;16.77;;;10.47;;
10170;SDS011;5127;50.922;6.988;2022-12-18T04:34:32;15.13;;;9.90;;
10170;SDS011;5127;50.922;6.988;2022-12-18T04:36:59;15.70;;;10.80;;
10170;SDS011;5127;50.922;6.988;2022-12-18T04:39:27;17.60;;;10.47;;
10170;SDS011;5127;50.922;6.988;2022-12-18T04:41:59;17.13;;;11.07;;
10170;SDS011;5127;50.922;6.988;2022-12-18T04:44:26;21.07;;;11.70;;
10170;SDS011;5127;50.922;6.988;2022-12-18T04:46:53;17.80;;;11.20;;
10170;SDS011;5127;50.922;6.988;2022-12-18T04:49:22;17.47;;;11.00;;
10170;SDS011;5127;50.922;6.988;2022-12-18T04:51:50;17.70;;;10.57;;
10170;SDS011;5127;50.922;6.988;2022-12-18T04:54:18;16.80;;;10.93;;
10170;SDS011;5127;50.922;6.988;2022-12-18T04:56:45;17.37;;;10.90;;
10170;SDS011;5127;50.922;6.988;2022-12-18T04:59:13;18.87;;;10.67;;
10170;SDS011;5127;50.922;6.988;2022-12-18T05:01:40;17.50;;;10.43;;
10170;SDS011;5127;50.922;6.988;2022-12-18T05:04:07;15.80;;;10.20;;
10170;SDS011;5127;50.922;6.988;2022-12-18T05:06:36;18.43;;;11.37;;
10170;SDS011;5127;50.922;6.988;2022-12-18T05:09:03;16.77;;;10.93;;
10170;SDS011;5127;50.922;6.988;2022-12-18T05:11:31;19.20;;;10.57;;
10170;SDS011;5127;50.922;6.988;2022-12-18T05:13:58;16.67;;;10.50;;
10170;SDS011;5127;50.922;6.988;2022-12-18T05:16:25;17.90;;;10.43;;
10170;SDS011;5127;50.922;6.988;2022-12-18T05:18:52;18.50;;;11.23;;
10170;SDS011;5127;50.922;6.988;2022-12-18T05:21:19;17.80;;;10.47;;
10170;SDS011;5127;50.922;6.988;2022-12-18T05:23:48;15.70;;;10.17;;
10170;SDS011;5127;50.922;6.988;2022-12-18T05:26:16;18.63;;;10.70;;
10170;SDS011;5127;50.922;6.988;2022-12-18T05:28:44;15.73;;;10.13;;
10170;SDS011;5127;50.922;6.988;2022-12-18T05:31:12;15.10;;;10.40;;
10170;SDS011;5127;50.922;6.988;2022-12-18T05:33:39;14.83;;;9.83;;
10170;SDS011;5127;50.922;6.988;2022-12-18T05:36:08;15.63;;;10.07;;
10170;SDS011;5127;50.922;6.988;2022-12-18T05:38:38;14.53;;;9.20;;
10170;SDS011;5127;50.922;6.988;2022-12-18T05:41:07;16.53;;;9.87;;
10170;SDS011;5127;50.922;6.988;2022-12-18T05:43:35;16.17;;;9.87;;
10170;SDS011;5127;50.922;6.988;2022-12-18T05:46:04;15.67;;;9.73;;
10170;SDS011;5127;50.922;6.988;2022-12-18T05:48:32;15.97;;;10.40;;
10170;SDS011;5127;50.922;6.988;2022-12-18T05:51:03;17.73;;;11.07;;
10170;SDS011;5127;50.922;6.988;2022-12-18T05:53:32;15.83;;;10.00;;
10170;SDS011;5127;50.922;6.988;2022-12-18T05:56:00;16.80;;;10.00;;
10170;SDS011;5127;50.922;6.988;2022-12-18T05:58:30;18.23;;;10.57;;
10170;SDS011;5127;50.922;6.988;2022-12-18T06:00:57;15.13;;;9.67;;
10170;SDS011;5127;50.922;6.988;2022-12-18T06:03:32;18.80;;;10.63;;
10170;SDS011;5127;50.922;6.988;2022-12-18T06:05:59;15.10;;;9.60;;
10170;SDS011;5127;50.922;6.988;2022-12-18T06:08:27;17.33;;;11.27;;
10170;SDS011;5127;50.922;6.988;2022-12-18T06:10:54;17.50;;;10.60;;
10170;SDS011;5127;50.922;6.988;2022-12-18T06:13:22;16.10;;;10.70;;
10170;SDS011;5127;50.922;6.988;2022-12-18T06:15:50;17.23;;;10.30;;
10170;SDS011;5127;50.922;6.988;2022-12-18T06:18:17;17.30;;;10.80;;
10170;SDS011;5127;50.922;6.988;2022-12-18T06:20:45;19.27;;;10.23;;
10170;SDS011;5127;50.922;6.988;2022-12-18T06:23:20;16.43;;;10.53;;
10170;SDS011;5127;50.922;6.988;2022-12-18T06:25:47;19.90;;;10.80;;
10170;SDS011;5127;50.922;6.988;2022-12-18T06:28:15;17.50;;;10.50;;
10170;SDS011;5127;50.922;6.988;2022-12-18T06:30:42;17.20;;;10.93;;
10170;SDS011;5127;50.922;6.988;2022-12-18T06:33:11;16.90;;;10.17;;
10170;SDS011;5127;50.922;6.988;2022-12-18T06:35:39;15.57;;;10.13;;
10170;SDS011;5127;50.922;6.988;2022-12-18T06:38:06;16.73;;;10.50;;
10170;SDS011;5127;50.922;6.988;2022-12-18T06:40:34;17.43;;;10.60;;
10170;SDS011;5127;50.922;6.988;2022-12-18T06:43:04;15.63;;;10.37;;
10170;SDS011;5127;50.922;6.988;2022-12-18T06:45:32;17.27;;;11.13;;
10170;SDS011;5127;50.922;6.988;2022-12-18T06:47:59;17.07;;;10.77;;
10170;SDS011;5127;50.922;6.988;2022-12-18T06:50:28;17.53;;;10.97;;
10170;SDS011;5127;50.922;6.988;2022-12-18T06:52:55;17.07;;;10.60;;
10170;SDS011;5127;50.922;6.988;2022-12-18T06:55:22;16.83;;;10.90;;
10170;SDS011;5127;50.922;6.988;2022-12-18T06:57:50;18.40;;;11.50;;
10170;SDS011;5127;50.922;6.988;2022-12-18T07:00:17;20.83;;;11.67;;
10170;SDS011;5127;50.922;6.988;2022-12-18T07:02:45;18.00;;;11.63;;
10170;SDS011;5127;50.922;6.988;2022-12-18T07:05:12;19.90;;;11.67;;
10170;SDS011;5127;50.922;6.988;2022-12-18T07:07:41;18.63;;;11.50;;
10170;SDS011;5127;50.922;6.988;2022-12-18T07:10:08;21.70;;;12.67;;
10170;SDS011;5127;50.922;6.988;2022-12-18T07:12:36;17.63;;;11.63;;
10170;SDS011;5127;50.922;6.988;2022-12-18T07:15:04;20.20;;;12.47;;
10170;SDS011;5127;50.922;6.988;2022-12-18T07:17:32;19.60;;;12.47;;
10170;SDS011;5127;50.922;6.988;2022-12-18T07:19:59;19.03;;;11.90;;
10170;SDS011;5127;50.922;6.988;2022-12-18T07:22:26;20.70;;;12.97;;
10170;SDS011;5127;50.922;6.988;2022-12-18T07:24:55;19.57;;;12.00;;
10170;SDS011;5127;50.922;6.988;2022-12-18T07:27:22;21.60;;;11.70;;
10170;SDS011;5127;50.922;6.988;2022-12-18T07:29:50;20.73;;;12.53;;
10170;SDS011;5127;50.922;6.988;2022-12-18T07:32:17;20.53;;;12.43;;
10170;SDS011;5127;50.922;6.988;2022-12-18T07:34:44;22.40;;;13.00;;
10170;SDS011;5127;50.922;6.988;2022-12-18T07:37:12;22.00;;;12.37;;
10170;SDS011;5127;50.922;6.988;2022-12-18T07:39:39;21.20;;;12.50;;
10170;SDS011;5127;50.922;6.988;2022-12-18T07:42:08;20.20;;;12.33;;
10170;SDS011;5127;50.922;6.988;2022-12-18T07:45:01;20.83;;;12.37;;
10170;SDS011;5127;50.922;6.988;2022-12-18T07:47:29;19.90;;;13.30;;
10170;SDS011;5127;50.922;6.988;2022-12-18T07:49:56;20.77;;;12.80;;
10170;SDS011;5127;50.922;6.988;2022-12-18T07:52:24;22.93;;;13.83;;
10170;SDS011;5127;50.922;6.988;2022-12-18T07:54:51;19.93;;;12.73;;
10170;SDS011;5127;50.922;6.988;2022-12-18T07:57:19;20.40;;;12.57;;
10170;SDS011;5127;50.922;6.988;2022-12-18T07:59:47;21.30;;;12.37;;
10170;SDS011;5127;50.922;6.988;2022-12-18T08:02:14;23.20;;;13.07;;
10170;SDS011;5127;50.922;6.988;2022-12-18T08:04:41;21.40;;;12.47;;
10170;SDS011;5127;50.922;6.988;2022-12-18T08:07:09;23.40;;;13.30;;
10170;SDS011;5127;50.922;6.988;2022-12-18T08:09:36;21.00;;;12.00;;
10170;SDS011;5127;50.922;6.988;2022-12-18T08:12:04;20.53;;;12.30;;
10170;SDS011;5127;50.922;6.988;2022-12-18T08:14:33;20.00;;;12.27;;
10170;SDS011;5127;50.922;6.988;2022-12-18T08:17:00;22.47;;;12.97;;
10170;SDS011;5127;50.922;6.988;2022-12-18T08:19:28;22.53;;;12.57;;
10170;SDS011;5127;50.922;6.988;2022-12-18T08:21:55;20.10;;;12.40;;
10170;SDS011;5127;50.922;6.988;2022-12-18T08:24:22;18.30;;;11.23;;
10170;SDS011;5127;50.922;6.988;2022-12-18T08:26:50;21.87;;;12.70;;
10170;SDS011;5127;50.922;6.988;2022-12-18T08:29:17;19.50;;;12.20;;
10170;SDS011;5127;50.922;6.988;2022-12-18T08:31:45;20.13;;;11.87;;
10170;SDS011;5127;50.922;6.988;2022-12-18T08:34:13;19.40;;;12.37;;
10170;SDS011;5127;50.922;6.988;2022-12-18T08:36:40;21.13;;;12.40;;
10170;SDS011;5127;50.922;6.988;2022-12-18T08:39:08;20.57;;;12.53;;
10170;SDS011;5127;50.922;6.988;2022-12-18T08:41:35;21.07;;;12.10;;
10170;SDS011;5127;50.922;6.988;2022-12-18T08:44:02;19.17;;;12.07;;
10170;SDS011;5127;50.922;6.988;2022-12-18T08:46:49;20.60;;;12.47;;
10170;SDS011;5127;50.922;6.988;2022-12-18T08:49:16;22.47;;;12.40;;
10170;SDS011;5127;50.922;6.988;2022-12-18T08:51:43;18.60;;;11.63;;
10170;SDS011;5127;50.922;6.988;2022-12-18T08:54:11;20.17;;;11.23;;
10170;SDS011;5127;50.922;6.988;2022-12-18T08:56:39;20.53;;;12.37;;
10170;SDS011;5127;50.922;6.988;2022-12-18T08:59:06;20.53;;;11.37;;
10170;SDS011;5127;50.922;6.988;2022-12-18T09:01:35;18.40;;;11.30;;
10170;SDS011;5127;50.922;6.988;2022-12-18T09:04:03;18.53;;;11.30;;
10170;SDS011;5127;50.922;6.988;2022-12-18T09:06:31;18.57;;;12.30;;
10170;SDS011;5127;50.922;6.988;2022-12-18T09:08:58;18.27;;;11.13;;
10170;SDS011;5127;50.922;6.988;2022-12-18T09:11:26;17.17;;;11.27;;
10170;SDS011;5127;50.922;6.988;2022-12-18T09:13:54;16.07;;;10.30;;
10170;SDS011;5127;50.922;6.988;2022-12-18T09:16:23;16.73;;;10.60;;
10170;SDS011;5127;50.922;6.988;2022-12-18T09:18:51;19.60;;;11.47;;
10170;SDS011;5127;50.922;6.988;2022-12-18T09:21:26;18.37;;;11.50;;
10170;SDS011;5127;50.922;6.988;2022-12-18T09:23:55;18.83;;;10.97;;
10170;SDS011;5127;50.922;6.988;2022-12-18T09:26:23;17.60;;;10.07;;
10170;SDS011;5127;50.922;6.988;2022-12-18T09:28:52;16.33;;;10.80;;
10170;SDS011;5127;50.922;6.988;2022-12-18T09:31:20;16.70;;;10.57;;
10170;SDS011;5127;50.922;6.988;2022-12-18T09:33:48;16.97;;;11.00;;
10170;SDS011;5127;50.922;6.988;2022-12-18T09:36:17;16.17;;;10.10;;
10170;SDS011;5127;50.922;6.988;2022-12-18T09:38:46;15.67;;;10.50;;
10170;SDS011;5127;50.922;6.988;2022-12-18T09:41:16;16.37;;;10.60;;
10170;SDS011;5127;50.922;6.988;2022-12-18T09:43:54;15.93;;;10.47;;
10170;SDS011;5127;50.922;6.988;2022-12-18T09:46:25;16.33;;;10.43;;
10170;SDS011;5127;50.922;6.988;2022-12-18T09:48:58;17.23;;;10.93;;
10170;SDS011;5127;50.922;6.988;2022-12-18T09:51:28;14.77;;;10.10;;
10170;SDS011;5127;50.922;6.988;2022-12-18T09:54:01;19.93;;;10.70;;
10170;SDS011;5127;50.922;6.988;2022-12-18T09:56:34;16.33;;;10.73;;
10170;SDS011;5127;50.922;6.988;2022-12-18T09:59:04;18.23;;;10.60;;
10170;SDS011;5127;50.922;6.988;2022-12-18T10:01:31;17.57;;;10.80;;
10170;SDS011;5127;50.922;6.988;2022-12-18T10:03:59;16.97;;;10.77;;
10170;SDS011;5127;50.922;6.988;2022-12-18T10:06:27;15.13;;;10.27;;
10170;SDS011;5127;50.922;6.988;2022-12-18T10:09:04;16.30;;;10.50;;
10170;SDS011;5127;50.922;6.988;2022-12-18T10:11:40;15.40;;;10.10;;
10170;SDS011;5127;50.922;6.988;2022-12-18T10:14:15;17.40;;;11.47;;
10170;SDS011;5127;50.922;6.988;2022-12-18T10:16:52;15.37;;;10.13;;
10170;SDS011;5127;50.922;6.988;2022-12-18T10:19:30;15.23;;;10.47;;
10170;SDS011;5127;50.922;6.988;2022-12-18T10:22:07;16.83;;;10.33;;
10170;SDS011;5127;50.922;6.988;2022-12-18T10:24:44;16.47;;;10.73;;
10170;SDS011;5127;50.922;6.988;2022-12-18T10:27:18;18.63;;;11.63;;
10170;SDS011;5127;50.922;6.988;2022-12-18T10:29:49;14.67;;;9.73;;
10170;SDS011;5127;50.922;6.988;2022-12-18T10:32:18;15.37;;;10.20;;
10170;SDS011;5127;50.922;6.988;2022-12-18T10:34:47;15.10;;;9.97;;
10170;SDS011;5127;50.922;6.988;2022-12-18T10:37:16;13.90;;;9.97;;
10170;SDS011;5127;50.922;6.988;2022-12-18T10:39:46;16.27;;;10.47;;
10170;SDS011;5127;50.922;6.988;2022-12-18T10:42:31;15.50;;;10.07;;
10170;SDS011;5127;50.922;6.988;2022-12-18T10:45:00;15.57;;;10.57;;
10170;SDS011;5127;50.922;6.988;2022-12-18T10:47:28;15.53;;;10.20;;
10170;SDS011;5127;50.922;6.988;2022-12-18T10:49:56;14.27;;;10.10;;
10170;SDS011;5127;50.922;6.988;2022-12-18T10:52:24;14.17;;;9.90;;
10170;SDS011;5127;50.922;6.988;2022-12-18T10:54:54;15.50;;;10.00;;
10170;SDS011;5127;50.922;6.988;2022-12-18T10:57:32;16.70;;;10.47;;
10170;SDS011;5127;50.922;6.988;2022-12-18T11:00:18;15.40;;;10.43;;
10170;SDS011;5127;50.922;6.988;2022-12-18T11:02:51;16.13;;;10.40;;
10170;SDS011;5127;50.922;6.988;2022-12-18T11:05:26;17.57;;;11.00;;
10170;SDS011;5127;50.922;6.988;2022-12-18T11:07:56;19.20;;;11.40;;
10170;SDS011;5127;50.922;6.988;2022-12-18T11:10:28;17.50;;;10.57;;
10170;SDS011;5127;50.922;6.988;2022-12-18T11:13:08;16.63;;;11.00;;
10170;SDS011;5127;50.922;6.988;2022-12-18T11:15:37;15.07;;;10.50;;
10170;SDS011;5127;50.922;6.988;2022-12-18T11:18:14;17.37;;;10.57;;
10170;SDS011;5127;50.922;6.988;2022-12-18T11:20:46;15.57;;;10.83;;
10170;SDS011;5127;50.922;6.988;2022-12-18T11:23:18;17.40;;;11.23;;
10170;SDS011;5127;50.922;6.988;2022-12-18T11:25:59;16.03;;;10.13;;
10170;SDS011;5127;50.922;6.988;2022-12-18T11:28:39;15.93;;;10.93;;
10170;SDS011;5127;50.922;6.988;2022-12-18T11:31:09;21.17;;;11.00;;
10170;SDS011;5127;50.922;6.988;2022-12-18T11:33:44;20.13;;;12.03;;
10170;SDS011;5127;50.922;6.988;2022-12-18T11:36:15;16.93;;;10.97;;
10170;SDS011;5127;50.922;6.988;2022-12-18T11:38:43;16.33;;;11.30;;
10170;SDS011;5127;50.922;6.988;2022-12-18T11:41:18;16.13;;;10.63;;
10170;SDS011;5127;50.922;6.988;2022-12-18T11:44:10;16.27;;;10.97;;
10170;SDS011;5127;50.922;6.988;2022-12-18T11:46:43;16.57;;;10.73;;
10170;SDS011;5127;50.922;6.988;2022-12-18T11:49:17;17.37;;;11.37;;
10170;SDS011;5127;50.922;6.988;2022-12-18T11:51:49;17.93;;;11.10;;
10170;SDS011;5127;50.922;6.988;2022-12-18T11:54:22;15.87;;;10.50;;
10170;SDS011;5127;50.922;6.988;2022-12-18T11:56:51;18.40;;;11.50;;
10170;SDS011;5127;50.922;6.988;2022-12-18T11:59:24;16.63;;;11.43;;
10170;SDS011;5127;50.922;6.988;2022-12-18T12:01:59;17.97;;;11.60;;
10170;SDS011;5127;50.922;6.988;2022-12-18T12:04:45;16.87;;;11.47;;
10170;SDS011;5127;50.922;6.988;2022-12-18T12:07:27;16.43;;;11.13;;
10170;SDS011;5127;50.922;6.988;2022-12-18T12:10:04;17.10;;;11.40;;
10170;SDS011;5127;50.922;6.988;2022-12-18T12:12:49;18.40;;;12.10;;
10170;SDS011;5127;50.922;6.988;2022-12-18T12:15:28;22.83;;;12.00;;
10170;SDS011;5127;50.922;6.988;2022-12-18T12:18:08;18.30;;;11.20;;
10170;SDS011;5127;50.922;6.988;2022-12-18T12:20:47;20.13;;;11.97;;
10170;SDS011;5127;50.922;6.988;2022-12-18T12:23:20;16.97;;;11.67;;
10170;SDS011;5127;50.922;6.988;2022-12-18T12:25:57;19.50;;;11.93;;
10170;SDS011;5127;50.922;6.988;2022-12-18T12:28:40;17.67;;;11.70;;
10170;SDS011;5127;50.922;6.988;2022-12-18T12:31:20;17.37;;;11.87;;
10170;SDS011;5127;50.922;6.988;2022-12-18T12:33:58;20.47;;;12.63;;
10170;SDS011;5127;50.922;6.988;2022-12-18T12:36:38;18.47;;;12.23;;
10170;SDS011;5127;50.922;6.988;2022-12-18T12:39:13;18.17;;;12.13;;
10170;SDS011;5127;50.922;6.988;2022-12-18T12:41:46;18.07;;;11.80;;
10170;SDS011;5127;50.922;6.988;2022-12-18T12:44:34;19.77;;;12.33;;
10170;SDS011;5127;50.922;6.988;2022-12-18T12:47:09;18.13;;;11.90;;
10170;SDS011;5127;50.922;6.988;2022-12-18T12:49:40;16.57;;;12.07;;
10170;SDS011;5127;50.922;6.988;2022-12-18T12:52:14;17.77;;;12.23;;
10170;SDS011;5127;50.922;6.988;2022-12-18T12:54:46;17.80;;;11.70;;
10170;SDS011;5127;50.922;6.988;2022-12-18T12:57:15;19.97;;;12.93;;
10170;SDS011;5127;50.922;6.988;2022-12-18T12:59:51;21.37;;;13.20;;
10170;SDS011;5127;50.922;6.988;2022-12-18T13:02:28;18.10;;;11.73;;
10170;SDS011;5127;50.922;6.988;2022-12-18T13:05:02;18.23;;;12.47;;
10170;SDS011;5127;50.922;6.988;2022-12-18T13:07:37;17.93;;;12.17;;
10170;SDS011;5127;50.922;6.988;2022-12-18T13:10:12;19.47;;;13.13;;
10170;SDS011;5127;50.922;6.988;2022-12-18T13:12:53;19.63;;;12.97;;
10170;SDS011;5127;50.922;6.988;2022-12-18T13:15:23;17.87;;;12.27;;
10170;SDS011;5127;50.922;6.988;2022-12-18T13:18:04;20.40;;;12.87;;
10170;SDS011;5127;50.922;6.988;2022-12-18T13:20:39;18.60;;;12.77;;
10170;SDS011;5127;50.922;6.988;2022-12-18T13:23:28;19.23;;;12.87;;
10170;SDS011;5127;50.922;6.988;2022-12-18T13:25:58;17.97;;;12.43;;
10170;SDS011;5127;50.922;6.988;2022-12-18T13:28:49;21.33;;;13.53;;
10170;SDS011;5127;50.922;6.988;2022-12-18T13:34:37;18.83;;;12.93;;
10170;SDS011;5127;50.922;6.988;2022-12-18T13:43:23;20.93;;;13.10;;
10170;SDS011;5127;50.922;6.988;2022-12-18T13:45:59;19.10;;;13.30;;
10170;SDS011;5127;50.922;6.988;2022-12-18T13:48:32;22.30;;;14.30;;
10170;SDS011;5127;50.922;6.988;2022-12-18T13:51:04;22.40;;;13.70;;
10170;SDS011;5127;50.922;6.988;2022-12-18T13:53:35;20.57;;;13.37;;
10170;SDS011;5127;50.922;6.988;2022-12-18T13:56:05;22.67;;;13.40;;
10170;SDS011;5127;50.922;6.988;2022-12-18T13:58:33;21.47;;;13.60;;
10170;SDS011;5127;50.922;6.988;2022-12-18T14:01:00;20.97;;;13.27;;
10170;SDS011;5127;50.922;6.988;2022-12-18T14:03:30;21.13;;;13.53;;
10170;SDS011;5127;50.922;6.988;2022-12-18T14:05:59;20.47;;;13.17;;
10170;SDS011;5127;50.922;6.988;2022-12-18T14:08:35;19.37;;;12.23;;
10170;SDS011;5127;50.922;6.988;2022-12-18T14:11:05;19.70;;;13.90;;
10170;SDS011;5127;50.922;6.988;2022-12-18T14:13:35;21.50;;;14.20;;
10170;SDS011;5127;50.922;6.988;2022-12-18T14:16:05;19.30;;;13.53;;
10170;SDS011;5127;50.922;6.988;2022-12-18T14:18:38;20.83;;;14.10;;
10170;SDS011;5127;50.922;6.988;2022-12-18T14:21:17;19.33;;;12.73;;
10170;SDS011;5127;50.922;6.988;2022-12-18T14:23:47;21.00;;;13.53;;
10170;SDS011;5127;50.922;6.988;2022-12-18T14:26:23;19.30;;;13.57;;
10170;SDS011;5127;50.922;6.988;2022-12-18T14:28:54;21.70;;;14.10;;
10170;SDS011;5127;50.922;6.988;2022-12-18T14:31:22;22.83;;;14.30;;
10170;SDS011;5127;50.922;6.988;2022-12-18T14:33:51;21.37;;;14.10;;
10170;SDS011;5127;50.922;6.988;2022-12-18T14:36:21;22.53;;;14.00;;
10170;SDS011;5127;50.922;6.988;2022-12-18T14:38:50;21.43;;;14.13;;
10170;SDS011;5127;50.922;6.988;2022-12-18T14:41:19;20.03;;;13.57;;
10170;SDS011;5127;50.922;6.988;2022-12-18T14:43:48;22.20;;;14.03;;
10170;SDS011;5127;50.922;6.988;2022-12-18T14:46:30;24.80;;;15.63;;
10170;SDS011;5127;50.922;6.988;2022-12-18T14:49:02;22.00;;;14.60;;
10170;SDS011;5127;50.922;6.988;2022-12-18T14:51:32;25.17;;;14.63;;
10170;SDS011;5127;50.922;6.988;2022-12-18T14:54:01;18.77;;;13.63;;
10170;SDS011;5127;50.922;6.988;2022-12-18T14:56:33;21.43;;;14.30;;
10170;SDS011;5127;50.922;6.988;2022-12-18T14:59:02;22.80;;;15.30;;
10170;SDS011;5127;50.922;6.988;2022-12-18T15:01:33;20.83;;;14.23;;
10170;SDS011;5127;50.922;6.988;2022-12-18T15:04:03;26.10;;;14.87;;
10170;SDS011;5127;50.922;6.988;2022-12-18T15:06:34;25.33;;;15.13;;
10170;SDS011;5127;50.922;6.988;2022-12-18T15:09:03;21.97;;;15.17;;
10170;SDS011;5127;50.922;6.988;2022-12-18T15:11:42;22.87;;;15.50;;